Latest Weather Observations for South Channel Island

IDV60801

Issued at 1:32 pm EST Saturday 2 July 2016 (issued every 30 minutes, with the page automatically refreshed every 10 minutes)

About weather observations | Map of weather stations | Latest weather observations for VIC | Other Formats
Station Details ID: 086344 Name: SOUTH CHANNEL ISLAND Lat: -38.31 Lon: 144.80 Height: 9.0 m
Data from the previous 72 hours. | See also: Recent months for locations in Victoria
Date/Time
EST
Temp
°C
App
Temp
°C
Dew
Point
°C
Rel
Hum
%
Delta-T
°C
Wind Press
QNH
hPa
Press
MSL
hPa
Rain since
9am
mm
Dir  Spd
km/h
Gust
km/h
Spd
kts
Gust
kts
02/01:30pm - - - - - W 32 35 17 19 - - -
02/01:00pm - - - - - W 35 39 19 21 - - -
02/12:30pm - - - - - W 37 41 20 22 - - -
02/12:00pm - - - - - WNW 37 44 20 24 - - -
02/11:30am - - - - - WNW 35 44 19 24 - - -
02/11:00am - - - - - WNW 33 41 18 22 - - -
02/10:30am - - - - - NW 32 35 17 19 - - -
02/10:00am - - - - - NW 30 35 16 19 - - -
02/09:30am - - - - - NW 30 33 16 18 - - -
02/09:00am - - - - - NW 35 41 19 22 - - -
02/08:30am - - - - - NW 32 35 17 19 - - -
02/08:00am - - - - - WNW 32 35 17 19 - - -
02/07:30am - - - - - NW 32 35 17 19 - - -
02/07:00am - - - - - NW 30 37 16 20 - - -
02/06:30am - - - - - NW 32 35 17 19 - - -
02/06:00am - - - - - NW 28 32 15 17 - - -
02/05:30am - - - - - NW 35 41 19 22 - - -
02/05:00am - - - - - NW 30 35 16 19 - - -
02/04:30am - - - - - NNW 28 33 15 18 - - -
02/04:00am - - - - - NW 24 28 13 15 - - -
02/03:30am - - - - - NW 28 32 15 17 - - -
02/03:00am - - - - - NW 30 33 16 18 - - -
02/02:30am - - - - - NW 32 37 17 20 - - -
02/02:00am - - - - - NW 32 37 17 20 - - -
02/01:30am - - - - - NW 35 44 19 24 - - -
02/01:00am - - - - - NW 33 39 18 21 - - -
02/12:30am - - - - - NW 33 39 18 21 - - -
02/12:00am - - - - - NW 32 33 17 18 - - -
 
Date/Time
EST
Temp
°C
App
Temp
°C
Dew
Point
°C
Rel
Hum
%
Delta-T
°C
Wind Press
QNH
hPa
Press
MSL
hPa
Rain since
9am
mm
Dir  Spd
km/h
Gust
km/h
Spd
kts
Gust
kts
01/11:30pm - - - - - NW 26 32 14 17 - - -
01/11:00pm - - - - - NW 28 35 15 19 - - -
01/10:30pm - - - - - NW 22 26 12 14 - - -
01/10:00pm - - - - - NW 26 32 14 17 - - -
01/09:30pm - - - - - NW 28 33 15 18 - - -
01/09:00pm - - - - - NW 26 28 14 15 - - -
01/08:30pm - - - - - NNW 26 30 14 16 - - -
01/08:00pm - - - - - NW 28 30 15 16 - - -
01/07:30pm - - - - - NW 22 28 12 15 - - -
01/07:00pm - - - - - NW 22 26 12 14 - - -
01/06:30pm - - - - - NW 26 30 14 16 - - -
01/06:00pm - - - - - NW 24 28 13 15 - - -
01/05:30pm - - - - - WNW 28 33 15 18 - - -
01/05:00pm - - - - - NW 35 37 19 20 - - -
01/04:30pm - - - - - NW 32 35 17 19 - - -
01/04:00pm - - - - - WNW 30 39 16 21 - - -
01/03:30pm - - - - - NNW 22 26 12 14 - - -
01/03:00pm - - - - - NW 33 37 18 20 - - -
01/02:30pm - - - - - WNW 33 41 18 22 - - -
01/02:00pm - - - - - WNW 30 35 16 19 - - -
01/01:30pm - - - - - WNW 30 35 16 19 - - -
01/01:00pm - - - - - W 33 39 18 21 - - -
01/12:30pm - - - - - W 33 43 18 23 - - -
01/12:00pm - - - - - W 28 33 15 18 - - -
01/11:30am - - - - - W 35 41 19 22 - - -
01/11:00am - - - - - WSW 37 43 20 23 - - -
01/10:30am - - - - - WSW 37 48 20 26 - - -
01/10:00am - - - - - WSW 43 52 23 28 - - -
01/09:38am - - - - - WSW 37 56 20 30 - - -
01/09:30am - - - - - W 37 43 20 23 - - -
01/09:08am - - - - - WSW 33 44 18 24 - - -
01/09:00am - - - - - SW 37 44 20 24 - - -
01/08:47am - - - - - SW 37 48 20 26 - - -
01/08:30am - - - - - SSW 37 44 20 24 - - -
01/08:00am - - - - - SW 32 48 17 26 - - -
01/07:30am - - - - - SW 41 48 22 26 - - -
01/07:24am - - - - - WSW 39 48 21 26 - - -
01/07:11am - - - - - WSW 33 46 18 25 - - -
01/07:00am - - - - - SW 37 52 20 28 - - -
01/06:52am - - - - - W 35 52 19 28 - - -
01/06:36am - - - - - WSW 35 46 19 25 - - -
01/06:30am - - - - - SW 37 48 20 26 - - -
01/06:00am - - - - - SW 32 37 17 20 - - -
01/05:39am - - - - - SW 33 52 18 28 - - -
01/05:30am - - - - - SW 32 37 17 20 - - -
01/05:00am - - - - - SW 41 48 22 26 - - -
01/04:44am - - - - - SW 30 50 16 27 - - -
01/04:30am - - - - - SW 28 33 15 18 - - -
01/04:00am - - - - - SW 41 52 22 28 - - -
01/03:30am - - - - - WSW 33 50 18 27 - - -
01/03:29am - - - - - W 32 50 17 27 - - -
01/03:26am - - - - - WNW 26 48 14 26 - - -
01/03:00am - - - - - NW 26 28 14 15 - - -
01/02:30am - - - - - NW 24 30 13 16 - - -
01/02:00am - - - - - NW 17 20 9 11 - - -
01/01:30am - - - - - WNW 13 17 7 9 - - -
01/01:00am - - - - - NW 11 15 6 8 - - -
01/12:30am - - - - - NNW 17 22 9 12 - - -
01/12:00am - - - - - NNW 28 32 15 17 - - -
 
Date/Time
EST
Temp
°C
App
Temp
°C
Dew
Point
°C
Rel
Hum
%
Delta-T
°C
Wind Press
QNH
hPa
Press
MSL
hPa
Rain since
9am
mm
Dir  Spd
km/h
Gust
km/h
Spd
kts
Gust
kts
30/11:30pm - - - - - NNW 30 37 16 20 - - -
30/11:00pm - - - - - NNW 35 46 19 25 - - -
30/10:30pm - - - - - NNW 39 48 21 26 - - -
30/10:00pm - - - - - NW 39 48 21 26 - - -
30/09:30pm - - - - - NW 39 50 21 27 - - -
30/09:00pm - - - - - NNW 33 39 18 21 - - -
30/08:30pm - - - - - NNW 32 41 17 22 - - -
30/08:00pm - - - - - NW 32 39 17 21 - - -
30/07:30pm - - - - - NNW 30 33 16 18 - - -
30/07:00pm - - - - - NNW 35 41 19 22 - - -
30/06:30pm - - - - - NNW 35 43 19 23 - - -
30/06:00pm - - - - - NNW 32 37 17 20 - - -
30/05:30pm - - - - - NNW 30 35 16 19 - - -
30/05:00pm - - - - - NNW 37 44 20 24 - - -
30/04:30pm - - - - - NNW 46 54 25 29 - - -
30/04:00pm - - - - - N 54 61 29 33 - - -
30/03:30pm - - - - - N 56 63 30 34 - - -
30/03:00pm - - - - - N 61 76 33 41 - - -
30/02:30pm - - - - - N 61 74 33 40 - - -
30/02:00pm - - - - - N 65 78 35 42 - - -
30/01:30pm - - - - - N 59 72 32 39 - - -
30/01:00pm - - - - - N 61 72 33 39 - - -
30/12:30pm - - - - - N 61 74 33 40 - - -
30/12:00pm - - - - - N 57 67 31 36 - - -
30/11:30am - - - - - N 56 67 30 36 - - -
30/11:00am - - - - - N 63 76 34 41 - - -
30/10:30am - - - - - N 63 74 34 40 - - -
30/10:00am - - - - - N 63 74 34 40 - - -
30/09:30am - - - - - N 59 72 32 39 - - -
30/09:00am - - - - - N 61 72 33 39 - - -
30/08:30am - - - - - N 63 76 34 41 - - -
30/08:00am - - - - - N 63 74 34 40 - - -
30/07:30am - - - - - N 61 76 33 41 - - -
30/07:00am - - - - - N 61 78 33 42 - - -
30/06:30am - - - - - N 61 74 33 40 - - -
30/06:00am - - - - - N 63 78 34 42 - - -
30/05:30am - - - - - N 69 82 37 44 - - -
30/05:00am - - - - - N 63 76 34 41 - - -
30/04:30am - - - - - N 57 67 31 36 - - -
30/04:00am - - - - - N 59 70 32 38 - - -
30/03:30am - - - - - N 59 69 32 37 - - -
30/03:00am - - - - - N 61 74 33 40 - - -
30/02:30am - - - - - N 59 69 32 37 - - -
30/02:00am - - - - - N 52 61 28 33 - - -
30/01:30am - - - - - N 59 74 32 40 - - -
30/01:00am - - - - - N 52 63 28 34 - - -
30/12:30am - - - - - NNW 50 59 27 32 - - -
30/12:00am - - - - - N 35 43 19 23 - - -
 
Date/Time
EST
Temp
°C
App
Temp
°C
Dew
Point
°C
Rel
Hum
%
Delta-T
°C
Wind Press
QNH
hPa
Press
MSL
hPa
Rain since
9am
mm
Dir  Spd
km/h
Gust
km/h
Spd
kts
Gust
kts
29/11:30pm - - - - - N 35 41 19 22 - - -
29/11:00pm - - - - - N 32 35 17 19 - - -
29/10:30pm - - - - - N 39 44 21 24 - - -
29/10:00pm - - - - - N 41 48 22 26 - - -
29/09:30pm - - - - - N 43 52 23 28 - - -
29/09:00pm - - - - - N 44 54 24 29 - - -
29/08:30pm - - - - - N 41 50 22 27 - - -
29/08:00pm - - - - - N 39 44 21 24 - - -
29/07:30pm - - - - - N 39 48 21 26 - - -
29/07:00pm - - - - - N 32 35 17 19 - - -
29/06:30pm - - - - - N 35 43 19 23 - - -
29/06:00pm - - - - - N 37 46 20 25 - - -
29/05:30pm - - - - - N 33 37 18 20 - - -
29/05:00pm - - - - - N 37 43 20 23 - - -
29/04:30pm - - - - - N 35 41 19 22 - - -
29/04:00pm - - - - - N 32 39 17 21 - - -
29/03:30pm - - - - - N 30 33 16 18 - - -
29/03:00pm - - - - - NNE 24 28 13 15 - - -
29/02:30pm - - - - - NNE 28 32 15 17 - - -
29/02:00pm - - - - - N 30 33 16 18 - - -

Other Formats:

Comma delimited format used in spreadsheet applications
http://www.bom.gov.au/fwo/IDV60801/IDV60801.94853.axf

JavaScript Object Notation format (JSON) in row-major order
http://www.bom.gov.au/fwo/IDV60801/IDV60801.94853.json